sensor_id;sensor_type;location;lat;lon;timestamp;P1;durP1;ratioP1;P2;durP2;ratioP2
26484;SDS011;18083;50.560;7.262;2024-01-16T00:02:16;5.73;;;3.80;;
26484;SDS011;18083;50.560;7.262;2024-01-16T00:04:44;8.40;;;3.97;;
26484;SDS011;18083;50.560;7.262;2024-01-16T00:07:11;7.80;;;4.20;;
26484;SDS011;18083;50.560;7.262;2024-01-16T00:09:38;5.17;;;3.53;;
26484;SDS011;18083;50.560;7.262;2024-01-16T00:12:06;8.90;;;4.53;;
26484;SDS011;18083;50.560;7.262;2024-01-16T00:14:36;7.33;;;4.37;;
26484;SDS011;18083;50.560;7.262;2024-01-16T00:17:03;10.90;;;5.40;;
26484;SDS011;18083;50.560;7.262;2024-01-16T00:19:31;8.83;;;3.77;;
26484;SDS011;18083;50.560;7.262;2024-01-16T00:21:58;6.00;;;4.10;;
26484;SDS011;18083;50.560;7.262;2024-01-16T00:24:26;9.27;;;4.73;;
26484;SDS011;18083;50.560;7.262;2024-01-16T00:26:54;9.20;;;4.63;;
26484;SDS011;18083;50.560;7.262;2024-01-16T00:29:21;13.83;;;3.93;;
26484;SDS011;18083;50.560;7.262;2024-01-16T00:31:48;6.13;;;4.13;;
26484;SDS011;18083;50.560;7.262;2024-01-16T00:34:16;8.90;;;4.00;;
26484;SDS011;18083;50.560;7.262;2024-01-16T00:36:43;6.03;;;3.83;;
26484;SDS011;18083;50.560;7.262;2024-01-16T00:39:10;9.93;;;3.83;;
26484;SDS011;18083;50.560;7.262;2024-01-16T00:41:37;9.83;;;3.57;;
26484;SDS011;18083;50.560;7.262;2024-01-16T00:44:05;10.93;;;4.00;;
26484;SDS011;18083;50.560;7.262;2024-01-16T00:46:34;8.00;;;4.60;;
26484;SDS011;18083;50.560;7.262;2024-01-16T00:49:01;6.93;;;3.93;;
26484;SDS011;18083;50.560;7.262;2024-01-16T00:51:28;9.87;;;3.63;;
26484;SDS011;18083;50.560;7.262;2024-01-16T00:53:55;6.30;;;3.90;;
26484;SDS011;18083;50.560;7.262;2024-01-16T00:56:23;10.07;;;4.87;;
26484;SDS011;18083;50.560;7.262;2024-01-16T00:58:52;7.47;;;4.43;;
26484;SDS011;18083;50.560;7.262;2024-01-16T01:01:20;7.27;;;4.10;;
26484;SDS011;18083;50.560;7.262;2024-01-16T01:03:47;6.30;;;3.60;;
26484;SDS011;18083;50.560;7.262;2024-01-16T01:06:15;5.30;;;3.73;;
26484;SDS011;18083;50.560;7.262;2024-01-16T01:08:42;5.73;;;3.77;;
26484;SDS011;18083;50.560;7.262;2024-01-16T01:11:09;12.63;;;4.03;;
26484;SDS011;18083;50.560;7.262;2024-01-16T01:13:36;14.93;;;4.83;;
26484;SDS011;18083;50.560;7.262;2024-01-16T01:16:04;6.80;;;3.60;;
26484;SDS011;18083;50.560;7.262;2024-01-16T01:18:31;5.70;;;3.87;;
26484;SDS011;18083;50.560;7.262;2024-01-16T01:20:59;7.73;;;3.07;;
26484;SDS011;18083;50.560;7.262;2024-01-16T01:23:26;6.87;;;4.27;;
26484;SDS011;18083;50.560;7.262;2024-01-16T01:25:53;8.23;;;3.53;;
26484;SDS011;18083;50.560;7.262;2024-01-16T01:28:20;10.50;;;3.27;;
26484;SDS011;18083;50.560;7.262;2024-01-16T01:30:48;6.57;;;3.97;;
26484;SDS011;18083;50.560;7.262;2024-01-16T01:33:15;5.33;;;3.30;;
26484;SDS011;18083;50.560;7.262;2024-01-16T01:35:43;11.23;;;4.20;;
26484;SDS011;18083;50.560;7.262;2024-01-16T01:38:10;9.27;;;4.53;;
26484;SDS011;18083;50.560;7.262;2024-01-16T01:40:38;10.17;;;4.70;;
26484;SDS011;18083;50.560;7.262;2024-01-16T01:43:20;5.67;;;3.43;;
26484;SDS011;18083;50.560;7.262;2024-01-16T01:45:51;10.97;;;4.33;;
26484;SDS011;18083;50.560;7.262;2024-01-16T01:48:16;6.60;;;3.57;;
26484;SDS011;18083;50.560;7.262;2024-01-16T01:50:44;10.87;;;4.80;;
26484;SDS011;18083;50.560;7.262;2024-01-16T01:53:11;12.23;;;4.40;;
26484;SDS011;18083;50.560;7.262;2024-01-16T01:55:38;10.20;;;4.03;;
26484;SDS011;18083;50.560;7.262;2024-01-16T01:58:06;13.13;;;4.40;;
26484;SDS011;18083;50.560;7.262;2024-01-16T02:00:33;9.63;;;4.03;;
26484;SDS011;18083;50.560;7.262;2024-01-16T02:03:00;8.10;;;3.57;;
26484;SDS011;18083;50.560;7.262;2024-01-16T02:05:28;14.60;;;5.60;;
26484;SDS011;18083;50.560;7.262;2024-01-16T02:07:56;7.40;;;3.23;;
26484;SDS011;18083;50.560;7.262;2024-01-16T02:10:23;8.67;;;3.30;;
26484;SDS011;18083;50.560;7.262;2024-01-16T02:12:50;9.30;;;3.93;;
26484;SDS011;18083;50.560;7.262;2024-01-16T02:15:18;8.43;;;4.37;;
26484;SDS011;18083;50.560;7.262;2024-01-16T02:17:47;2.60;;;2.37;;
26484;SDS011;18083;50.560;7.262;2024-01-16T02:20:14;6.20;;;3.70;;
26484;SDS011;18083;50.560;7.262;2024-01-16T02:22:42;6.63;;;4.17;;
26484;SDS011;18083;50.560;7.262;2024-01-16T02:25:10;9.40;;;3.70;;
26484;SDS011;18083;50.560;7.262;2024-01-16T02:27:37;10.87;;;4.03;;
26484;SDS011;18083;50.560;7.262;2024-01-16T02:30:05;10.33;;;3.63;;
26484;SDS011;18083;50.560;7.262;2024-01-16T02:32:32;9.00;;;4.10;;
26484;SDS011;18083;50.560;7.262;2024-01-16T02:35:00;6.10;;;3.63;;
26484;SDS011;18083;50.560;7.262;2024-01-16T02:37:27;7.10;;;4.30;;
26484;SDS011;18083;50.560;7.262;2024-01-16T02:39:54;8.80;;;3.80;;
26484;SDS011;18083;50.560;7.262;2024-01-16T02:42:21;9.80;;;4.30;;
26484;SDS011;18083;50.560;7.262;2024-01-16T02:44:49;13.57;;;4.57;;
26484;SDS011;18083;50.560;7.262;2024-01-16T02:47:16;9.50;;;4.00;;
26484;SDS011;18083;50.560;7.262;2024-01-16T02:49:43;10.80;;;4.17;;
26484;SDS011;18083;50.560;7.262;2024-01-16T02:52:10;8.00;;;4.80;;
26484;SDS011;18083;50.560;7.262;2024-01-16T02:54:38;8.33;;;4.60;;
26484;SDS011;18083;50.560;7.262;2024-01-16T02:57:05;5.73;;;4.13;;
26484;SDS011;18083;50.560;7.262;2024-01-16T02:59:32;8.37;;;7.00;;
26484;SDS011;18083;50.560;7.262;2024-01-16T03:02:00;7.60;;;4.30;;
26484;SDS011;18083;50.560;7.262;2024-01-16T03:04:27;9.37;;;4.57;;
26484;SDS011;18083;50.560;7.262;2024-01-16T03:06:54;7.83;;;3.80;;
26484;SDS011;18083;50.560;7.262;2024-01-16T03:09:22;6.17;;;4.53;;
26484;SDS011;18083;50.560;7.262;2024-01-16T03:11:49;7.17;;;4.40;;
26484;SDS011;18083;50.560;7.262;2024-01-16T03:14:16;5.07;;;4.23;;
26484;SDS011;18083;50.560;7.262;2024-01-16T03:16:44;14.17;;;5.87;;
26484;SDS011;18083;50.560;7.262;2024-01-16T03:19:12;7.87;;;5.77;;
26484;SDS011;18083;50.560;7.262;2024-01-16T03:21:39;18.17;;;5.57;;
26484;SDS011;18083;50.560;7.262;2024-01-16T03:24:07;5.13;;;4.60;;
26484;SDS011;18083;50.560;7.262;2024-01-16T03:26:36;12.77;;;5.63;;
26484;SDS011;18083;50.560;7.262;2024-01-16T03:29:06;13.00;;;6.07;;
26484;SDS011;18083;50.560;7.262;2024-01-16T03:31:34;6.40;;;4.57;;
26484;SDS011;18083;50.560;7.262;2024-01-16T03:34:01;9.73;;;5.60;;
26484;SDS011;18083;50.560;7.262;2024-01-16T03:36:28;12.03;;;4.90;;
26484;SDS011;18083;50.560;7.262;2024-01-16T03:38:56;15.07;;;5.20;;
26484;SDS011;18083;50.560;7.262;2024-01-16T03:41:23;9.90;;;5.77;;
26484;SDS011;18083;50.560;7.262;2024-01-16T03:43:50;11.67;;;5.27;;
26484;SDS011;18083;50.560;7.262;2024-01-16T03:46:18;8.23;;;5.20;;
26484;SDS011;18083;50.560;7.262;2024-01-16T03:48:45;11.53;;;5.33;;
26484;SDS011;18083;50.560;7.262;2024-01-16T03:51:12;6.27;;;4.87;;
26484;SDS011;18083;50.560;7.262;2024-01-16T03:53:41;11.40;;;4.83;;
26484;SDS011;18083;50.560;7.262;2024-01-16T03:56:08;10.17;;;5.20;;
26484;SDS011;18083;50.560;7.262;2024-01-16T03:58:36;11.07;;;4.47;;
26484;SDS011;18083;50.560;7.262;2024-01-16T04:01:03;10.47;;;6.53;;
26484;SDS011;18083;50.560;7.262;2024-01-16T04:03:30;14.30;;;5.23;;
26484;SDS011;18083;50.560;7.262;2024-01-16T04:05:58;8.50;;;4.80;;
26484;SDS011;18083;50.560;7.262;2024-01-16T04:08:25;9.87;;;4.50;;
26484;SDS011;18083;50.560;7.262;2024-01-16T04:10:52;10.23;;;5.23;;
26484;SDS011;18083;50.560;7.262;2024-01-16T04:13:19;10.00;;;4.13;;
26484;SDS011;18083;50.560;7.262;2024-01-16T04:15:47;7.03;;;4.63;;
26484;SDS011;18083;50.560;7.262;2024-01-16T04:18:14;11.37;;;4.27;;
26484;SDS011;18083;50.560;7.262;2024-01-16T04:20:42;7.00;;;4.43;;
26484;SDS011;18083;50.560;7.262;2024-01-16T04:23:09;6.60;;;4.10;;
26484;SDS011;18083;50.560;7.262;2024-01-16T04:25:37;10.17;;;4.53;;
26484;SDS011;18083;50.560;7.262;2024-01-16T04:28:05;6.30;;;4.20;;
26484;SDS011;18083;50.560;7.262;2024-01-16T04:30:33;9.00;;;4.63;;
26484;SDS011;18083;50.560;7.262;2024-01-16T04:33:00;6.63;;;4.73;;
26484;SDS011;18083;50.560;7.262;2024-01-16T04:35:27;11.33;;;4.60;;
26484;SDS011;18083;50.560;7.262;2024-01-16T04:37:54;7.13;;;4.37;;
26484;SDS011;18083;50.560;7.262;2024-01-16T04:40:22;7.73;;;4.17;;
26484;SDS011;18083;50.560;7.262;2024-01-16T04:42:49;7.57;;;4.50;;
26484;SDS011;18083;50.560;7.262;2024-01-16T04:45:16;9.83;;;4.63;;
26484;SDS011;18083;50.560;7.262;2024-01-16T04:47:44;6.70;;;5.30;;
26484;SDS011;18083;50.560;7.262;2024-01-16T04:50:11;10.53;;;5.00;;
26484;SDS011;18083;50.560;7.262;2024-01-16T04:52:38;5.53;;;3.77;;
26484;SDS011;18083;50.560;7.262;2024-01-16T04:55:06;7.30;;;4.83;;
26484;SDS011;18083;50.560;7.262;2024-01-16T04:57:33;10.23;;;4.47;;
26484;SDS011;18083;50.560;7.262;2024-01-16T05:00:01;9.17;;;5.33;;
26484;SDS011;18083;50.560;7.262;2024-01-16T05:02:29;9.27;;;4.53;;
26484;SDS011;18083;50.560;7.262;2024-01-16T05:04:57;5.97;;;4.17;;
26484;SDS011;18083;50.560;7.262;2024-01-16T05:07:24;6.07;;;3.57;;
26484;SDS011;18083;50.560;7.262;2024-01-16T05:09:52;9.17;;;3.60;;
26484;SDS011;18083;50.560;7.262;2024-01-16T05:12:21;4.70;;;3.63;;
26484;SDS011;18083;50.560;7.262;2024-01-16T05:14:49;4.83;;;4.20;;
26484;SDS011;18083;50.560;7.262;2024-01-16T05:17:16;13.57;;;4.33;;
26484;SDS011;18083;50.560;7.262;2024-01-16T05:19:43;8.13;;;3.93;;
26484;SDS011;18083;50.560;7.262;2024-01-16T05:22:10;7.97;;;4.90;;
26484;SDS011;18083;50.560;7.262;2024-01-16T05:24:38;11.57;;;4.73;;
26484;SDS011;18083;50.560;7.262;2024-01-16T05:27:05;10.43;;;4.97;;
26484;SDS011;18083;50.560;7.262;2024-01-16T05:29:32;13.33;;;5.57;;
26484;SDS011;18083;50.560;7.262;2024-01-16T05:31:59;8.97;;;5.60;;
26484;SDS011;18083;50.560;7.262;2024-01-16T05:34:27;7.70;;;5.40;;
26484;SDS011;18083;50.560;7.262;2024-01-16T05:36:54;8.93;;;4.60;;
26484;SDS011;18083;50.560;7.262;2024-01-16T05:39:22;6.90;;;5.53;;
26484;SDS011;18083;50.560;7.262;2024-01-16T05:41:49;8.73;;;5.03;;
26484;SDS011;18083;50.560;7.262;2024-01-16T05:44:16;11.97;;;4.97;;
26484;SDS011;18083;50.560;7.262;2024-01-16T05:46:44;11.43;;;5.80;;
26484;SDS011;18083;50.560;7.262;2024-01-16T05:49:11;13.83;;;6.30;;
26484;SDS011;18083;50.560;7.262;2024-01-16T05:51:38;28.00;;;14.33;;
26484;SDS011;18083;50.560;7.262;2024-01-16T05:54:05;14.93;;;9.60;;
26484;SDS011;18083;50.560;7.262;2024-01-16T05:56:33;18.03;;;9.53;;
26484;SDS011;18083;50.560;7.262;2024-01-16T05:59:00;17.90;;;8.40;;
26484;SDS011;18083;50.560;7.262;2024-01-16T06:01:27;11.47;;;6.53;;
26484;SDS011;18083;50.560;7.262;2024-01-16T06:03:55;19.33;;;7.07;;
26484;SDS011;18083;50.560;7.262;2024-01-16T06:06:22;13.90;;;6.83;;
26484;SDS011;18083;50.560;7.262;2024-01-16T06:08:49;11.17;;;6.33;;
26484;SDS011;18083;50.560;7.262;2024-01-16T06:11:17;13.13;;;6.93;;
26484;SDS011;18083;50.560;7.262;2024-01-16T06:13:46;15.77;;;8.63;;
26484;SDS011;18083;50.560;7.262;2024-01-16T06:16:13;11.70;;;6.67;;
26484;SDS011;18083;50.560;7.262;2024-01-16T06:18:40;10.47;;;6.50;;
26484;SDS011;18083;50.560;7.262;2024-01-16T06:21:07;12.47;;;5.97;;
26484;SDS011;18083;50.560;7.262;2024-01-16T06:23:36;6.73;;;6.07;;
26484;SDS011;18083;50.560;7.262;2024-01-16T06:26:04;10.00;;;5.90;;
26484;SDS011;18083;50.560;7.262;2024-01-16T06:28:31;8.73;;;6.43;;
26484;SDS011;18083;50.560;7.262;2024-01-16T06:30:58;11.33;;;6.40;;
26484;SDS011;18083;50.560;7.262;2024-01-16T06:33:25;10.10;;;6.67;;
26484;SDS011;18083;50.560;7.262;2024-01-16T06:35:56;15.93;;;7.00;;
26484;SDS011;18083;50.560;7.262;2024-01-16T06:38:23;13.30;;;6.70;;
26484;SDS011;18083;50.560;7.262;2024-01-16T06:40:51;13.63;;;7.00;;
26484;SDS011;18083;50.560;7.262;2024-01-16T06:43:18;9.50;;;7.60;;
26484;SDS011;18083;50.560;7.262;2024-01-16T06:45:45;11.17;;;7.33;;
26484;SDS011;18083;50.560;7.262;2024-01-16T06:48:13;16.47;;;7.60;;
26484;SDS011;18083;50.560;7.262;2024-01-16T06:50:40;18.23;;;8.67;;
26484;SDS011;18083;50.560;7.262;2024-01-16T06:53:08;12.70;;;8.00;;
26484;SDS011;18083;50.560;7.262;2024-01-16T06:55:35;14.90;;;5.60;;
26484;SDS011;18083;50.560;7.262;2024-01-16T06:58:02;6.80;;;5.27;;
26484;SDS011;18083;50.560;7.262;2024-01-16T07:00:30;14.70;;;7.00;;
26484;SDS011;18083;50.560;7.262;2024-01-16T07:02:57;19.00;;;8.80;;
26484;SDS011;18083;50.560;7.262;2024-01-16T07:05:25;12.60;;;7.77;;
26484;SDS011;18083;50.560;7.262;2024-01-16T07:07:52;11.60;;;7.80;;
26484;SDS011;18083;50.560;7.262;2024-01-16T07:10:19;12.80;;;7.27;;
26484;SDS011;18083;50.560;7.262;2024-01-16T07:12:48;15.93;;;9.13;;
26484;SDS011;18083;50.560;7.262;2024-01-16T07:15:15;35.97;;;20.07;;
26484;SDS011;18083;50.560;7.262;2024-01-16T07:17:43;19.40;;;10.43;;
26484;SDS011;18083;50.560;7.262;2024-01-16T07:20:10;15.97;;;10.10;;
26484;SDS011;18083;50.560;7.262;2024-01-16T07:22:38;17.97;;;8.33;;
26484;SDS011;18083;50.560;7.262;2024-01-16T07:25:07;14.10;;;7.57;;
26484;SDS011;18083;50.560;7.262;2024-01-16T07:27:34;11.80;;;7.57;;
26484;SDS011;18083;50.560;7.262;2024-01-16T07:30:07;10.10;;;6.70;;
26484;SDS011;18083;50.560;7.262;2024-01-16T07:32:31;15.23;;;7.03;;
26484;SDS011;18083;50.560;7.262;2024-01-16T07:34:58;13.87;;;6.67;;
26484;SDS011;18083;50.560;7.262;2024-01-16T07:37:25;8.50;;;5.33;;
26484;SDS011;18083;50.560;7.262;2024-01-16T07:39:53;21.00;;;10.77;;
26484;SDS011;18083;50.560;7.262;2024-01-16T07:42:20;12.57;;;6.83;;
26484;SDS011;18083;50.560;7.262;2024-01-16T07:44:47;15.10;;;5.70;;
26484;SDS011;18083;50.560;7.262;2024-01-16T07:47:15;12.57;;;6.13;;
26484;SDS011;18083;50.560;7.262;2024-01-16T07:49:42;16.10;;;6.57;;
26484;SDS011;18083;50.560;7.262;2024-01-16T07:52:10;12.30;;;6.57;;
26484;SDS011;18083;50.560;7.262;2024-01-16T07:54:38;11.53;;;6.27;;
26484;SDS011;18083;50.560;7.262;2024-01-16T07:57:05;10.47;;;5.83;;
26484;SDS011;18083;50.560;7.262;2024-01-16T07:59:33;12.03;;;6.80;;
26484;SDS011;18083;50.560;7.262;2024-01-16T08:02:00;31.87;;;16.30;;
26484;SDS011;18083;50.560;7.262;2024-01-16T08:04:27;28.40;;;12.77;;
26484;SDS011;18083;50.560;7.262;2024-01-16T08:06:55;23.83;;;12.50;;
26484;SDS011;18083;50.560;7.262;2024-01-16T08:09:22;15.40;;;9.30;;
26484;SDS011;18083;50.560;7.262;2024-01-16T08:11:49;15.53;;;10.10;;
26484;SDS011;18083;50.560;7.262;2024-01-16T08:14:16;22.70;;;11.73;;
26484;SDS011;18083;50.560;7.262;2024-01-16T08:16:44;12.23;;;6.47;;
26484;SDS011;18083;50.560;7.262;2024-01-16T08:19:11;16.60;;;5.13;;
26484;SDS011;18083;50.560;7.262;2024-01-16T08:21:38;9.87;;;6.13;;
26484;SDS011;18083;50.560;7.262;2024-01-16T08:24:06;11.93;;;5.33;;
26484;SDS011;18083;50.560;7.262;2024-01-16T08:26:33;13.70;;;7.03;;
26484;SDS011;18083;50.560;7.262;2024-01-16T08:29:00;16.17;;;8.60;;
26484;SDS011;18083;50.560;7.262;2024-01-16T08:31:27;18.77;;;9.07;;
26484;SDS011;18083;50.560;7.262;2024-01-16T08:33:55;30.07;;;14.80;;
26484;SDS011;18083;50.560;7.262;2024-01-16T08:36:23;13.27;;;7.67;;
26484;SDS011;18083;50.560;7.262;2024-01-16T08:38:51;14.20;;;7.30;;
26484;SDS011;18083;50.560;7.262;2024-01-16T08:41:18;12.57;;;9.03;;
26484;SDS011;18083;50.560;7.262;2024-01-16T08:43:45;15.30;;;5.77;;
26484;SDS011;18083;50.560;7.262;2024-01-16T08:46:13;12.20;;;6.33;;
26484;SDS011;18083;50.560;7.262;2024-01-16T08:48:41;12.13;;;4.63;;
26484;SDS011;18083;50.560;7.262;2024-01-16T08:51:10;15.33;;;4.87;;
26484;SDS011;18083;50.560;7.262;2024-01-16T08:53:38;7.47;;;4.10;;
26484;SDS011;18083;50.560;7.262;2024-01-16T08:56:05;11.40;;;5.43;;
26484;SDS011;18083;50.560;7.262;2024-01-16T08:58:35;11.50;;;6.17;;
26484;SDS011;18083;50.560;7.262;2024-01-16T09:01:04;15.87;;;5.87;;
26484;SDS011;18083;50.560;7.262;2024-01-16T09:03:32;14.67;;;5.20;;
26484;SDS011;18083;50.560;7.262;2024-01-16T09:06:00;8.67;;;4.10;;
26484;SDS011;18083;50.560;7.262;2024-01-16T09:08:27;5.93;;;3.53;;
26484;SDS011;18083;50.560;7.262;2024-01-16T09:10:55;9.90;;;5.60;;
26484;SDS011;18083;50.560;7.262;2024-01-16T09:13:23;15.83;;;6.17;;
26484;SDS011;18083;50.560;7.262;2024-01-16T09:15:50;10.67;;;4.50;;
26484;SDS011;18083;50.560;7.262;2024-01-16T09:18:17;11.87;;;4.50;;
26484;SDS011;18083;50.560;7.262;2024-01-16T09:20:45;7.23;;;4.27;;
26484;SDS011;18083;50.560;7.262;2024-01-16T09:23:12;11.00;;;3.60;;
26484;SDS011;18083;50.560;7.262;2024-01-16T09:25:40;7.37;;;3.70;;
26484;SDS011;18083;50.560;7.262;2024-01-16T09:28:07;6.93;;;2.97;;
26484;SDS011;18083;50.560;7.262;2024-01-16T09:30:35;12.00;;;3.77;;
26484;SDS011;18083;50.560;7.262;2024-01-16T09:33:02;13.17;;;3.83;;
26484;SDS011;18083;50.560;7.262;2024-01-16T09:35:31;10.80;;;3.30;;
26484;SDS011;18083;50.560;7.262;2024-01-16T09:37:58;5.47;;;2.93;;
26484;SDS011;18083;50.560;7.262;2024-01-16T09:40:26;5.70;;;3.37;;
26484;SDS011;18083;50.560;7.262;2024-01-16T09:42:53;3.60;;;2.30;;
26484;SDS011;18083;50.560;7.262;2024-01-16T09:45:20;6.70;;;3.60;;
26484;SDS011;18083;50.560;7.262;2024-01-16T09:47:49;3.37;;;2.40;;
26484;SDS011;18083;50.560;7.262;2024-01-16T09:50:17;7.50;;;3.00;;
26484;SDS011;18083;50.560;7.262;2024-01-16T09:52:45;6.43;;;2.63;;
26484;SDS011;18083;50.560;7.262;2024-01-16T09:55:13;8.13;;;3.87;;
26484;SDS011;18083;50.560;7.262;2024-01-16T09:57:41;5.27;;;3.43;;
26484;SDS011;18083;50.560;7.262;2024-01-16T10:00:09;5.17;;;2.60;;
26484;SDS011;18083;50.560;7.262;2024-01-16T10:02:40;5.93;;;3.73;;
26484;SDS011;18083;50.560;7.262;2024-01-16T10:05:12;10.70;;;3.43;;
26484;SDS011;18083;50.560;7.262;2024-01-16T10:07:39;5.97;;;3.13;;
26484;SDS011;18083;50.560;7.262;2024-01-16T10:10:07;5.03;;;3.03;;
26484;SDS011;18083;50.560;7.262;2024-01-16T10:12:38;4.90;;;3.13;;
26484;SDS011;18083;50.560;7.262;2024-01-16T10:15:06;5.03;;;2.60;;
26484;SDS011;18083;50.560;7.262;2024-01-16T10:17:40;6.77;;;1.83;;
26484;SDS011;18083;50.560;7.262;2024-01-16T10:20:08;3.47;;;3.17;;
26484;SDS011;18083;50.560;7.262;2024-01-16T10:22:38;4.43;;;2.27;;
26484;SDS011;18083;50.560;7.262;2024-01-16T10:27:34;6.97;;;2.17;;
26484;SDS011;18083;50.560;7.262;2024-01-16T10:30:02;6.73;;;2.20;;
26484;SDS011;18083;50.560;7.262;2024-01-16T10:32:31;2.20;;;1.60;;
26484;SDS011;18083;50.560;7.262;2024-01-16T10:37:40;8.63;;;2.47;;
26484;SDS011;18083;50.560;7.262;2024-01-16T10:40:09;8.53;;;2.43;;
26484;SDS011;18083;50.560;7.262;2024-01-16T10:42:37;6.03;;;1.80;;
26484;SDS011;18083;50.560;7.262;2024-01-16T10:45:05;5.07;;;1.80;;
26484;SDS011;18083;50.560;7.262;2024-01-16T10:47:32;8.70;;;2.97;;
26484;SDS011;18083;50.560;7.262;2024-01-16T10:50:04;4.60;;;1.93;;
26484;SDS011;18083;50.560;7.262;2024-01-16T10:52:33;4.77;;;2.10;;
26484;SDS011;18083;50.560;7.262;2024-01-16T10:55:01;5.40;;;1.77;;
26484;SDS011;18083;50.560;7.262;2024-01-16T10:57:34;3.30;;;1.80;;
26484;SDS011;18083;50.560;7.262;2024-01-16T11:00:05;5.00;;;2.53;;
26484;SDS011;18083;50.560;7.262;2024-01-16T11:02:38;5.13;;;2.43;;
26484;SDS011;18083;50.560;7.262;2024-01-16T11:05:02;4.63;;;2.10;;
26484;SDS011;18083;50.560;7.262;2024-01-16T11:07:32;4.23;;;1.63;;
26484;SDS011;18083;50.560;7.262;2024-01-16T11:10:01;6.17;;;1.20;;
26484;SDS011;18083;50.560;7.262;2024-01-16T11:12:30;2.03;;;1.57;;
26484;SDS011;18083;50.560;7.262;2024-01-16T11:14:58;6.80;;;2.17;;
26484;SDS011;18083;50.560;7.262;2024-01-16T11:17:29;7.73;;;2.23;;
26484;SDS011;18083;50.560;7.262;2024-01-16T11:19:57;2.57;;;1.60;;
26484;SDS011;18083;50.560;7.262;2024-01-16T11:22:24;7.57;;;1.90;;
26484;SDS011;18083;50.560;7.262;2024-01-16T11:25:06;2.27;;;1.60;;
26484;SDS011;18083;50.560;7.262;2024-01-16T11:27:24;4.83;;;1.53;;
26484;SDS011;18083;50.560;7.262;2024-01-16T11:29:51;4.30;;;1.67;;
26484;SDS011;18083;50.560;7.262;2024-01-16T11:32:38;2.83;;;1.80;;
26484;SDS011;18083;50.560;7.262;2024-01-16T11:35:07;2.97;;;1.47;;
26484;SDS011;18083;50.560;7.262;2024-01-16T11:37:35;3.97;;;1.60;;
26484;SDS011;18083;50.560;7.262;2024-01-16T11:42:48;4.00;;;1.87;;
26484;SDS011;18083;50.560;7.262;2024-01-16T11:48:12;3.73;;;2.73;;
26484;SDS011;18083;50.560;7.262;2024-01-16T11:50:39;2.47;;;1.20;;
26484;SDS011;18083;50.560;7.262;2024-01-16T11:53:07;3.07;;;1.70;;
26484;SDS011;18083;50.560;7.262;2024-01-16T11:55:35;5.23;;;2.20;;
26484;SDS011;18083;50.560;7.262;2024-01-16T12:00:41;3.47;;;1.60;;
26484;SDS011;18083;50.560;7.262;2024-01-16T12:03:08;3.30;;;1.30;;
26484;SDS011;18083;50.560;7.262;2024-01-16T12:05:36;7.67;;;1.67;;
26484;SDS011;18083;50.560;7.262;2024-01-16T12:08:03;7.00;;;1.67;;
26484;SDS011;18083;50.560;7.262;2024-01-16T12:10:32;5.07;;;2.13;;
26484;SDS011;18083;50.560;7.262;2024-01-16T12:13:00;2.80;;;1.77;;
26484;SDS011;18083;50.560;7.262;2024-01-16T12:15:28;4.70;;;2.00;;
26484;SDS011;18083;50.560;7.262;2024-01-16T12:17:57;5.47;;;2.40;;
26484;SDS011;18083;50.560;7.262;2024-01-16T12:20:29;7.97;;;2.13;;
26484;SDS011;18083;50.560;7.262;2024-01-16T12:22:57;5.57;;;2.00;;
26484;SDS011;18083;50.560;7.262;2024-01-16T12:25:25;6.70;;;2.03;;
26484;SDS011;18083;50.560;7.262;2024-01-16T12:27:55;3.53;;;1.73;;
26484;SDS011;18083;50.560;7.262;2024-01-16T12:30:28;2.70;;;1.77;;
26484;SDS011;18083;50.560;7.262;2024-01-16T12:35:34;7.33;;;2.00;;
26484;SDS011;18083;50.560;7.262;2024-01-16T12:38:02;5.73;;;2.37;;
26484;SDS011;18083;50.560;7.262;2024-01-16T12:40:32;4.20;;;1.70;;
26484;SDS011;18083;50.560;7.262;2024-01-16T12:42:59;5.73;;;2.67;;
26484;SDS011;18083;50.560;7.262;2024-01-16T12:45:27;7.03;;;2.03;;
26484;SDS011;18083;50.560;7.262;2024-01-16T12:47:55;3.13;;;1.87;;
26484;SDS011;18083;50.560;7.262;2024-01-16T12:50:24;3.37;;;1.60;;
26484;SDS011;18083;50.560;7.262;2024-01-16T12:55:31;3.27;;;1.50;;
26484;SDS011;18083;50.560;7.262;2024-01-16T12:58:17;3.40;;;1.70;;
26484;SDS011;18083;50.560;7.262;2024-01-16T13:00:49;5.70;;;2.57;;
26484;SDS011;18083;50.560;7.262;2024-01-16T13:03:20;5.07;;;2.27;;
26484;SDS011;18083;50.560;7.262;2024-01-16T13:05:56;3.70;;;1.60;;
26484;SDS011;18083;50.560;7.262;2024-01-16T13:08:24;3.63;;;2.20;;
26484;SDS011;18083;50.560;7.262;2024-01-16T13:11:06;7.67;;;1.77;;
26484;SDS011;18083;50.560;7.262;2024-01-16T13:13:34;4.07;;;1.70;;
26484;SDS011;18083;50.560;7.262;2024-01-16T13:16:02;4.80;;;2.37;;
26484;SDS011;18083;50.560;7.262;2024-01-16T13:18:32;3.63;;;1.50;;
26484;SDS011;18083;50.560;7.262;2024-01-16T13:20:59;3.37;;;2.03;;
26484;SDS011;18083;50.560;7.262;2024-01-16T13:23:28;5.47;;;1.87;;
26484;SDS011;18083;50.560;7.262;2024-01-16T13:25:55;7.90;;;2.20;;
26484;SDS011;18083;50.560;7.262;2024-01-16T13:28:25;5.33;;;1.97;;
26484;SDS011;18083;50.560;7.262;2024-01-16T13:30:52;2.63;;;1.87;;
26484;SDS011;18083;50.560;7.262;2024-01-16T13:33:19;5.17;;;1.97;;
26484;SDS011;18083;50.560;7.262;2024-01-16T13:35:47;18.90;;;4.20;;
26484;SDS011;18083;50.560;7.262;2024-01-16T13:38:15;5.00;;;1.93;;
26484;SDS011;18083;50.560;7.262;2024-01-16T13:40:42;2.93;;;2.27;;
26484;SDS011;18083;50.560;7.262;2024-01-16T13:43:10;6.27;;;2.23;;
26484;SDS011;18083;50.560;7.262;2024-01-16T13:45:38;4.17;;;1.80;;
26484;SDS011;18083;50.560;7.262;2024-01-16T13:48:05;6.33;;;1.90;;
26484;SDS011;18083;50.560;7.262;2024-01-16T13:50:33;5.77;;;2.33;;
26484;SDS011;18083;50.560;7.262;2024-01-16T13:53:00;5.97;;;2.13;;
26484;SDS011;18083;50.560;7.262;2024-01-16T13:55:29;3.27;;;1.83;;
26484;SDS011;18083;50.560;7.262;2024-01-16T13:57:58;6.43;;;2.60;;
26484;SDS011;18083;50.560;7.262;2024-01-16T14:00:25;3.73;;;2.00;;
26484;SDS011;18083;50.560;7.262;2024-01-16T14:02:53;5.73;;;2.43;;
26484;SDS011;18083;50.560;7.262;2024-01-16T14:05:21;2.87;;;2.00;;
26484;SDS011;18083;50.560;7.262;2024-01-16T14:07:49;2.77;;;2.20;;
26484;SDS011;18083;50.560;7.262;2024-01-16T14:10:17;6.57;;;2.43;;
26484;SDS011;18083;50.560;7.262;2024-01-16T14:12:46;5.93;;;2.57;;
26484;SDS011;18083;50.560;7.262;2024-01-16T14:15:15;4.17;;;2.30;;
26484;SDS011;18083;50.560;7.262;2024-01-16T14:17:46;4.67;;;2.20;;
26484;SDS011;18083;50.560;7.262;2024-01-16T14:20:13;6.07;;;2.30;;
26484;SDS011;18083;50.560;7.262;2024-01-16T14:22:41;6.37;;;3.20;;
26484;SDS011;18083;50.560;7.262;2024-01-16T14:25:11;3.20;;;2.33;;
26484;SDS011;18083;50.560;7.262;2024-01-16T14:27:41;4.47;;;3.17;;
26484;SDS011;18083;50.560;7.262;2024-01-16T14:30:14;8.30;;;3.00;;
26484;SDS011;18083;50.560;7.262;2024-01-16T14:32:43;5.33;;;2.93;;
26484;SDS011;18083;50.560;7.262;2024-01-16T14:35:07;6.27;;;2.50;;
26484;SDS011;18083;50.560;7.262;2024-01-16T14:37:36;8.53;;;2.83;;
26484;SDS011;18083;50.560;7.262;2024-01-16T14:40:04;6.00;;;2.73;;
26484;SDS011;18083;50.560;7.262;2024-01-16T14:42:42;6.37;;;2.60;;
26484;SDS011;18083;50.560;7.262;2024-01-16T14:45:11;5.00;;;2.97;;
26484;SDS011;18083;50.560;7.262;2024-01-16T14:47:38;4.50;;;2.97;;
26484;SDS011;18083;50.560;7.262;2024-01-16T14:50:06;6.27;;;2.77;;
26484;SDS011;18083;50.560;7.262;2024-01-16T14:52:34;7.33;;;3.00;;
26484;SDS011;18083;50.560;7.262;2024-01-16T14:55:01;4.03;;;2.47;;
26484;SDS011;18083;50.560;7.262;2024-01-16T14:57:32;8.20;;;2.97;;
26484;SDS011;18083;50.560;7.262;2024-01-16T15:00:02;3.30;;;2.57;;
26484;SDS011;18083;50.560;7.262;2024-01-16T15:02:29;6.17;;;3.00;;
26484;SDS011;18083;50.560;7.262;2024-01-16T15:04:56;6.93;;;2.63;;
26484;SDS011;18083;50.560;7.262;2024-01-16T15:07:23;4.43;;;2.70;;